sensor_id;sensor_type;location;lat;lon;timestamp;pressure;altitude;pressure_sealevel;temperature;humidity
26859;BME280;14429;48.346;16.338;2023-08-30T00:00:47;98750.16;;;25.42;48.28
26859;BME280;14429;48.346;16.338;2023-08-30T00:03:13;98736.47;;;25.72;48.76
26859;BME280;14429;48.346;16.338;2023-08-30T00:05:39;98729.22;;;25.29;48.43
26859;BME280;14429;48.346;16.338;2023-08-30T00:08:05;98729.50;;;25.52;49.24
26859;BME280;14429;48.346;16.338;2023-08-30T00:10:31;98727.00;;;25.74;48.85
26859;BME280;14429;48.346;16.338;2023-08-30T00:12:56;98729.56;;;25.39;49.59
26859;BME280;14429;48.346;16.338;2023-08-30T00:15:22;98732.31;;;25.70;48.84
26859;BME280;14429;48.346;16.338;2023-08-30T00:17:47;98741.13;;;25.41;47.58
26859;BME280;14429;48.346;16.338;2023-08-30T00:20:13;98733.19;;;25.33;48.62
26859;BME280;14429;48.346;16.338;2023-08-30T00:22:38;98722.13;;;25.76;48.62
26859;BME280;14429;48.346;16.338;2023-08-30T00:25:06;98732.63;;;25.79;48.48
26859;BME280;14429;48.346;16.338;2023-08-30T00:27:31;98731.44;;;25.15;46.93
26859;BME280;14429;48.346;16.338;2023-08-30T00:29:56;98721.47;;;25.57;49.14
26859;BME280;14429;48.346;16.338;2023-08-30T00:32:22;98715.66;;;25.47;49.32
26859;BME280;14429;48.346;16.338;2023-08-30T00:34:49;98723.41;;;25.19;45.66
26859;BME280;14429;48.346;16.338;2023-08-30T00:37:15;98725.72;;;25.53;47.86
26859;BME280;14429;48.346;16.338;2023-08-30T00:39:40;98720.25;;;25.53;49.10
26859;BME280;14429;48.346;16.338;2023-08-30T00:42:07;98722.97;;;25.22;49.95
26859;BME280;14429;48.346;16.338;2023-08-30T00:44:32;98723.38;;;25.56;49.10
26859;BME280;14429;48.346;16.338;2023-08-30T00:46:58;98732.84;;;25.54;49.05
26859;BME280;14429;48.346;16.338;2023-08-30T00:49:24;98737.19;;;25.31;49.68
26859;BME280;14429;48.346;16.338;2023-08-30T00:51:50;98743.44;;;25.44;49.33
26859;BME280;14429;48.346;16.338;2023-08-30T00:54:16;98741.63;;;25.62;49.11
26859;BME280;14429;48.346;16.338;2023-08-30T00:56:42;98748.78;;;24.96;50.16
26859;BME280;14429;48.346;16.338;2023-08-30T00:59:09;98742.78;;;25.48;49.08
26859;BME280;14429;48.346;16.338;2023-08-30T01:01:34;98743.44;;;24.58;50.54
26859;BME280;14429;48.346;16.338;2023-08-30T01:04:00;98751.66;;;25.07;50.27
26859;BME280;14429;48.346;16.338;2023-08-30T01:06:26;98747.19;;;25.43;49.48
26859;BME280;14429;48.346;16.338;2023-08-30T01:08:51;98750.25;;;25.29;49.45
26859;BME280;14429;48.346;16.338;2023-08-30T01:11:22;98755.38;;;25.43;49.40
26859;BME280;14429;48.346;16.338;2023-08-30T01:13:56;98760.56;;;25.57;49.03
26859;BME280;14429;48.346;16.338;2023-08-30T01:16:25;98754.25;;;25.57;49.06
26859;BME280;14429;48.346;16.338;2023-08-30T01:18:54;98749.69;;;25.51;49.04
26859;BME280;14429;48.346;16.338;2023-08-30T01:21:26;98746.72;;;25.22;47.86
26859;BME280;14429;48.346;16.338;2023-08-30T01:23:58;98754.41;;;25.31;49.37
26859;BME280;14429;48.346;16.338;2023-08-30T01:26:30;98755.09;;;25.57;48.99
26859;BME280;14429;48.346;16.338;2023-08-30T01:29:03;98767.66;;;24.91;49.59
26859;BME280;14429;48.346;16.338;2023-08-30T01:31:31;98765.50;;;25.06;50.10
26859;BME280;14429;48.346;16.338;2023-08-30T01:33:58;98760.22;;;25.47;49.33
26859;BME280;14429;48.346;16.338;2023-08-30T01:36:23;98763.00;;;24.55;46.35
26859;BME280;14429;48.346;16.338;2023-08-30T01:38:49;98762.78;;;24.50;49.59
26859;BME280;14429;48.346;16.338;2023-08-30T01:41:15;98759.88;;;25.31;49.61
26859;BME280;14429;48.346;16.338;2023-08-30T01:43:42;98767.41;;;25.36;49.31
26859;BME280;14429;48.346;16.338;2023-08-30T01:46:10;98762.28;;;25.52;49.10
26859;BME280;14429;48.346;16.338;2023-08-30T01:48:36;98768.69;;;25.33;49.55
26859;BME280;14429;48.346;16.338;2023-08-30T01:51:02;98771.09;;;25.54;49.03
26859;BME280;14429;48.346;16.338;2023-08-30T01:53:28;98763.97;;;25.53;48.52
26859;BME280;14429;48.346;16.338;2023-08-30T01:55:54;98766.13;;;25.44;48.49
26859;BME280;14429;48.346;16.338;2023-08-30T01:58:20;98767.75;;;25.52;49.04
26859;BME280;14429;48.346;16.338;2023-08-30T02:00:45;98768.16;;;25.55;48.97
26859;BME280;14429;48.346;16.338;2023-08-30T02:03:13;98769.84;;;25.50;48.88
26859;BME280;14429;48.346;16.338;2023-08-30T02:05:47;98761.63;;;25.19;47.99
26859;BME280;14429;48.346;16.338;2023-08-30T02:08:15;98761.50;;;25.45;49.28
26859;BME280;14429;48.346;16.338;2023-08-30T02:10:45;98756.41;;;25.55;48.87
26859;BME280;14429;48.346;16.338;2023-08-30T02:13:14;98752.19;;;25.52;49.01
26859;BME280;14429;48.346;16.338;2023-08-30T02:15:41;98757.50;;;25.47;49.19
26859;BME280;14429;48.346;16.338;2023-08-30T02:18:08;98755.53;;;25.54;48.87
26859;BME280;14429;48.346;16.338;2023-08-30T02:20:36;98765.03;;;25.52;48.91
26859;BME280;14429;48.346;16.338;2023-08-30T02:23:01;98766.16;;;25.32;49.57
26859;BME280;14429;48.346;16.338;2023-08-30T02:25:27;98775.75;;;25.47;49.17
26859;BME280;14429;48.346;16.338;2023-08-30T02:27:52;98789.19;;;25.55;48.83
26859;BME280;14429;48.346;16.338;2023-08-30T02:30:17;98782.47;;;25.51;49.05
26859;BME280;14429;48.346;16.338;2023-08-30T02:32:43;98774.09;;;25.46;49.11
26859;BME280;14429;48.346;16.338;2023-08-30T02:35:08;98776.78;;;25.52;49.06
26859;BME280;14429;48.346;16.338;2023-08-30T02:37:35;98774.44;;;25.56;48.90
26859;BME280;14429;48.346;16.338;2023-08-30T02:40:00;98778.25;;;25.55;48.90
26859;BME280;14429;48.346;16.338;2023-08-30T02:42:26;98768.19;;;25.49;49.04
26859;BME280;14429;48.346;16.338;2023-08-30T02:44:51;98769.84;;;25.50;49.05
26859;BME280;14429;48.346;16.338;2023-08-30T02:47:17;98760.22;;;25.47;49.21
26859;BME280;14429;48.346;16.338;2023-08-30T02:49:42;98761.00;;;25.54;48.74
26859;BME280;14429;48.346;16.338;2023-08-30T02:52:08;98765.06;;;25.09;49.67
26859;BME280;14429;48.346;16.338;2023-08-30T02:54:34;98758.63;;;25.27;49.65
26859;BME280;14429;48.346;16.338;2023-08-30T02:57:00;98755.03;;;25.33;49.41
26859;BME280;14429;48.346;16.338;2023-08-30T02:59:25;98758.78;;;25.39;49.20
26859;BME280;14429;48.346;16.338;2023-08-30T03:01:51;98761.91;;;25.42;49.21
26859;BME280;14429;48.346;16.338;2023-08-30T03:04:16;98758.56;;;25.40;49.25
26859;BME280;14429;48.346;16.338;2023-08-30T03:06:41;98766.97;;;25.45;49.02
26859;BME280;14429;48.346;16.338;2023-08-30T03:09:07;98757.28;;;25.42;49.14
26859;BME280;14429;48.346;16.338;2023-08-30T03:11:34;98752.66;;;25.43;49.28
26859;BME280;14429;48.346;16.338;2023-08-30T03:13:59;98748.69;;;25.39;49.18
26859;BME280;14429;48.346;16.338;2023-08-30T03:16:24;98745.94;;;25.39;49.16
26859;BME280;14429;48.346;16.338;2023-08-30T03:18:50;98750.69;;;25.26;49.59
26859;BME280;14429;48.346;16.338;2023-08-30T03:21:16;98750.97;;;25.42;49.18
26859;BME280;14429;48.346;16.338;2023-08-30T03:23:41;98744.00;;;25.22;47.61
26859;BME280;14429;48.346;16.338;2023-08-30T03:26:10;98739.25;;;25.35;49.65
26859;BME280;14429;48.346;16.338;2023-08-30T03:28:37;98738.44;;;25.35;49.53
26859;BME280;14429;48.346;16.338;2023-08-30T03:31:11;98729.56;;;25.09;48.27
26859;BME280;14429;48.346;16.338;2023-08-30T03:33:36;98726.16;;;25.19;49.58
26859;BME280;14429;48.346;16.338;2023-08-30T03:36:02;98730.47;;;25.33;49.44
26859;BME280;14429;48.346;16.338;2023-08-30T03:38:27;98722.06;;;25.28;49.51
26859;BME280;14429;48.346;16.338;2023-08-30T03:40:53;98719.47;;;25.40;49.36
26859;BME280;14429;48.346;16.338;2023-08-30T03:43:19;98716.81;;;25.03;50.27
26859;BME280;14429;48.346;16.338;2023-08-30T03:45:46;98720.41;;;25.27;49.51
26859;BME280;14429;48.346;16.338;2023-08-30T03:48:11;98725.44;;;25.30;49.53
26859;BME280;14429;48.346;16.338;2023-08-30T03:50:36;98732.03;;;24.86;50.61
26859;BME280;14429;48.346;16.338;2023-08-30T03:53:02;98733.63;;;25.30;49.43
26859;BME280;14429;48.346;16.338;2023-08-30T03:55:27;98735.53;;;25.30;49.50
26859;BME280;14429;48.346;16.338;2023-08-30T03:57:53;98736.31;;;25.06;50.13
26859;BME280;14429;48.346;16.338;2023-08-30T04:00:19;98750.06;;;24.87;48.88
26859;BME280;14429;48.346;16.338;2023-08-30T04:02:45;98745.66;;;25.23;49.79
26859;BME280;14429;48.346;16.338;2023-08-30T04:05:11;98743.50;;;25.31;49.47
26859;BME280;14429;48.346;16.338;2023-08-30T04:07:36;98746.84;;;25.33;49.36
26859;BME280;14429;48.346;16.338;2023-08-30T04:10:02;98754.81;;;25.35;49.41
26859;BME280;14429;48.346;16.338;2023-08-30T04:12:28;98749.88;;;24.76;50.92
26859;BME280;14429;48.346;16.338;2023-08-30T04:14:53;98736.00;;;25.20;49.60
26859;BME280;14429;48.346;16.338;2023-08-30T04:17:19;98750.13;;;25.17;49.59
26859;BME280;14429;48.346;16.338;2023-08-30T04:19:45;98748.66;;;25.15;49.66
26859;BME280;14429;48.346;16.338;2023-08-30T04:22:11;98760.13;;;25.23;49.65
26859;BME280;14429;48.346;16.338;2023-08-30T04:24:36;98759.03;;;25.31;49.38
26859;BME280;14429;48.346;16.338;2023-08-30T04:27:01;98758.34;;;25.11;49.92
26859;BME280;14429;48.346;16.338;2023-08-30T04:29:27;98763.41;;;25.08;49.88
26859;BME280;14429;48.346;16.338;2023-08-30T04:31:52;98764.34;;;25.26;49.41
26859;BME280;14429;48.346;16.338;2023-08-30T04:34:18;98768.91;;;24.95;50.57
26859;BME280;14429;48.346;16.338;2023-08-30T04:36:44;98769.53;;;24.97;50.34
26859;BME280;14429;48.346;16.338;2023-08-30T04:39:10;98763.75;;;25.17;49.97
26859;BME280;14429;48.346;16.338;2023-08-30T04:41:35;98763.94;;;25.22;49.59
26859;BME280;14429;48.346;16.338;2023-08-30T04:44:01;98777.63;;;25.10;49.87
26859;BME280;14429;48.346;16.338;2023-08-30T04:46:26;98772.13;;;25.22;49.52
26859;BME280;14429;48.346;16.338;2023-08-30T04:48:51;98769.13;;;25.30;49.43
26859;BME280;14429;48.346;16.338;2023-08-30T04:51:17;98770.78;;;25.31;49.49
26859;BME280;14429;48.346;16.338;2023-08-30T04:53:44;98775.91;;;25.21;49.59
26859;BME280;14429;48.346;16.338;2023-08-30T04:56:12;98772.50;;;25.32;49.45
26859;BME280;14429;48.346;16.338;2023-08-30T04:58:38;98781.06;;;25.36;49.39
26859;BME280;14429;48.346;16.338;2023-08-30T05:01:03;98786.75;;;25.34;49.21
26859;BME280;14429;48.346;16.338;2023-08-30T05:03:29;98785.91;;;25.34;49.40
26859;BME280;14429;48.346;16.338;2023-08-30T05:05:54;98787.75;;;25.40;49.11
26859;BME280;14429;48.346;16.338;2023-08-30T05:08:19;98796.56;;;25.42;49.11
26859;BME280;14429;48.346;16.338;2023-08-30T05:10:46;98794.28;;;25.45;49.00
26859;BME280;14429;48.346;16.338;2023-08-30T05:13:12;98804.38;;;25.38;49.21
26859;BME280;14429;48.346;16.338;2023-08-30T05:15:37;98792.63;;;25.44;49.02
26859;BME280;14429;48.346;16.338;2023-08-30T05:18:03;98806.88;;;25.46;48.88
26859;BME280;14429;48.346;16.338;2023-08-30T05:20:29;98804.38;;;25.38;49.04
26859;BME280;14429;48.346;16.338;2023-08-30T05:22:54;98800.75;;;25.14;49.63
26859;BME280;14429;48.346;16.338;2023-08-30T05:25:20;98799.81;;;25.32;49.28
26859;BME280;14429;48.346;16.338;2023-08-30T05:27:46;98788.09;;;25.19;49.61
26859;BME280;14429;48.346;16.338;2023-08-30T05:30:12;98790.75;;;25.32;49.48
26859;BME280;14429;48.346;16.338;2023-08-30T05:32:38;98799.56;;;25.34;49.32
26859;BME280;14429;48.346;16.338;2023-08-30T05:35:04;98794.38;;;25.26;49.51
26859;BME280;14429;48.346;16.338;2023-08-30T05:37:29;98804.47;;;25.25;49.53
26859;BME280;14429;48.346;16.338;2023-08-30T05:39:56;98805.75;;;25.16;49.82
26859;BME280;14429;48.346;16.338;2023-08-30T05:42:22;98808.69;;;25.21;49.65
26859;BME280;14429;48.346;16.338;2023-08-30T05:44:49;98806.25;;;25.01;50.00
26859;BME280;14429;48.346;16.338;2023-08-30T05:47:14;98811.81;;;24.82;50.48
26859;BME280;14429;48.346;16.338;2023-08-30T05:49:40;98802.03;;;25.05;49.98
26859;BME280;14429;48.346;16.338;2023-08-30T05:52:05;98804.19;;;24.96;49.18
26859;BME280;14429;48.346;16.338;2023-08-30T05:54:31;98813.13;;;25.10;49.78
26859;BME280;14429;48.346;16.338;2023-08-30T05:56:56;98808.72;;;25.15;49.62
26859;BME280;14429;48.346;16.338;2023-08-30T05:59:22;98809.91;;;25.25;49.39
26859;BME280;14429;48.346;16.338;2023-08-30T06:01:48;98814.19;;;25.09;49.92
26859;BME280;14429;48.346;16.338;2023-08-30T06:04:14;98812.91;;;25.17;49.77
26859;BME280;14429;48.346;16.338;2023-08-30T06:06:39;98813.09;;;25.16;49.76
26859;BME280;14429;48.346;16.338;2023-08-30T06:09:05;98816.25;;;25.19;49.73
26859;BME280;14429;48.346;16.338;2023-08-30T06:11:30;98816.63;;;24.73;50.61
26859;BME280;14429;48.346;16.338;2023-08-30T06:13:55;98810.59;;;25.15;49.91
26859;BME280;14429;48.346;16.338;2023-08-30T06:16:21;98816.66;;;25.16;49.68
26859;BME280;14429;48.346;16.338;2023-08-30T06:18:47;98812.34;;;25.03;50.11
26859;BME280;14429;48.346;16.338;2023-08-30T06:21:13;98819.00;;;25.13;49.79
26859;BME280;14429;48.346;16.338;2023-08-30T06:23:38;98814.84;;;25.11;49.86
26859;BME280;14429;48.346;16.338;2023-08-30T06:26:04;98822.41;;;24.27;51.76
26859;BME280;14429;48.346;16.338;2023-08-30T06:28:29;98822.09;;;24.73;50.73
26859;BME280;14429;48.346;16.338;2023-08-30T06:30:54;98822.94;;;24.80;50.50
26859;BME280;14429;48.346;16.338;2023-08-30T06:33:20;98823.88;;;25.05;50.13
26859;BME280;14429;48.346;16.338;2023-08-30T06:35:48;98826.47;;;24.87;50.24
26859;BME280;14429;48.346;16.338;2023-08-30T06:38:14;98835.59;;;25.12;49.86
26859;BME280;14429;48.346;16.338;2023-08-30T06:40:43;98829.81;;;24.76;50.40
26859;BME280;14429;48.346;16.338;2023-08-30T06:43:08;98829.56;;;25.03;50.13
26859;BME280;14429;48.346;16.338;2023-08-30T06:45:34;98822.63;;;25.01;50.17
26859;BME280;14429;48.346;16.338;2023-08-30T06:47:59;98826.84;;;25.03;49.99
26859;BME280;14429;48.346;16.338;2023-08-30T06:50:24;98818.84;;;25.02;49.87
26859;BME280;14429;48.346;16.338;2023-08-30T06:52:51;98819.66;;;25.09;49.75
26859;BME280;14429;48.346;16.338;2023-08-30T06:55:16;98813.78;;;25.12;49.78
26859;BME280;14429;48.346;16.338;2023-08-30T06:57:47;98830.97;;;25.12;49.73
26859;BME280;14429;48.346;16.338;2023-08-30T07:00:13;98827.59;;;25.16;49.54
26859;BME280;14429;48.346;16.338;2023-08-30T07:02:39;98823.66;;;24.31;49.48
26859;BME280;14429;48.346;16.338;2023-08-30T07:05:05;98813.38;;;25.02;49.84
26859;BME280;14429;48.346;16.338;2023-08-30T07:07:31;98826.78;;;25.10;49.48
26859;BME280;14429;48.346;16.338;2023-08-30T07:09:58;98825.78;;;25.04;49.80
26859;BME280;14429;48.346;16.338;2023-08-30T07:12:23;98830.66;;;24.96;49.97
26859;BME280;14429;48.346;16.338;2023-08-30T07:14:49;98823.03;;;25.04;49.83
26859;BME280;14429;48.346;16.338;2023-08-30T07:17:14;98821.41;;;24.97;50.06
26859;BME280;14429;48.346;16.338;2023-08-30T07:19:39;98824.31;;;25.02;49.85
26859;BME280;14429;48.346;16.338;2023-08-30T07:22:05;98824.72;;;25.05;49.78
26859;BME280;14429;48.346;16.338;2023-08-30T07:24:30;98821.47;;;24.71;49.42
26859;BME280;14429;48.346;16.338;2023-08-30T07:26:57;98820.16;;;24.93;49.98
26859;BME280;14429;48.346;16.338;2023-08-30T07:29:23;98823.13;;;24.85;50.04
26859;BME280;14429;48.346;16.338;2023-08-30T07:31:48;98823.06;;;24.98;49.82
26859;BME280;14429;48.346;16.338;2023-08-30T07:34:13;98819.50;;;24.97;50.03
26859;BME280;14429;48.346;16.338;2023-08-30T07:36:39;98824.97;;;24.97;49.98
26859;BME280;14429;48.346;16.338;2023-08-30T07:39:04;98820.25;;;24.55;50.04
26859;BME280;14429;48.346;16.338;2023-08-30T07:41:31;98828.72;;;25.03;49.85
26859;BME280;14429;48.346;16.338;2023-08-30T07:43:57;98823.03;;;25.11;49.69
26859;BME280;14429;48.346;16.338;2023-08-30T07:46:23;98824.25;;;25.15;49.58
26859;BME280;14429;48.346;16.338;2023-08-30T07:48:49;98829.72;;;25.15;49.48
26859;BME280;14429;48.346;16.338;2023-08-30T07:51:14;98825.13;;;25.09;49.80
26859;BME280;14429;48.346;16.338;2023-08-30T07:53:39;98824.59;;;24.75;49.81
26859;BME280;14429;48.346;16.338;2023-08-30T07:56:05;98831.97;;;24.68;49.81
26859;BME280;14429;48.346;16.338;2023-08-30T07:58:30;98838.69;;;24.65;50.26
26859;BME280;14429;48.346;16.338;2023-08-30T08:00:57;98834.91;;;24.73;49.84
26859;BME280;14429;48.346;16.338;2023-08-30T08:03:22;98839.47;;;24.79;49.76
26859;BME280;14429;48.346;16.338;2023-08-30T08:05:48;98832.38;;;24.84;49.75
26859;BME280;14429;48.346;16.338;2023-08-30T08:08:13;98827.94;;;24.83;49.83
26859;BME280;14429;48.346;16.338;2023-08-30T08:10:38;98826.06;;;24.77;49.68
26859;BME280;14429;48.346;16.338;2023-08-30T08:13:04;98844.22;;;24.40;48.47
26859;BME280;14429;48.346;16.338;2023-08-30T08:15:30;98838.66;;;24.78;49.54
26859;BME280;14429;48.346;16.338;2023-08-30T08:17:56;98842.03;;;24.74;48.00
26859;BME280;14429;48.346;16.338;2023-08-30T08:20:22;98842.88;;;24.81;49.09
26859;BME280;14429;48.346;16.338;2023-08-30T08:22:47;98844.53;;;24.88;49.51
26859;BME280;14429;48.346;16.338;2023-08-30T08:25:13;98840.53;;;24.78;49.92
26859;BME280;14429;48.346;16.338;2023-08-30T08:27:38;98847.88;;;24.90;49.54
26859;BME280;14429;48.346;16.338;2023-08-30T08:30:05;98854.63;;;24.88;49.56
26859;BME280;14429;48.346;16.338;2023-08-30T08:32:31;98862.16;;;24.86;49.57
26859;BME280;14429;48.346;16.338;2023-08-30T08:34:57;98853.78;;;24.68;47.45
26859;BME280;14429;48.346;16.338;2023-08-30T08:37:23;98859.44;;;24.86;49.38
26859;BME280;14429;48.346;16.338;2023-08-30T08:39:48;98855.81;;;24.98;49.17
26859;BME280;14429;48.346;16.338;2023-08-30T08:42:17;98863.44;;;24.77;49.70
26859;BME280;14429;48.346;16.338;2023-08-30T08:44:43;98869.28;;;24.87;49.42
26859;BME280;14429;48.346;16.338;2023-08-30T08:47:11;98866.41;;;24.69;48.96
26859;BME280;14429;48.346;16.338;2023-08-30T08:49:37;98874.75;;;24.93;49.50
26859;BME280;14429;48.346;16.338;2023-08-30T08:52:04;98875.03;;;24.40;47.56
26859;BME280;14429;48.346;16.338;2023-08-30T08:54:31;98869.72;;;24.90;49.47
26859;BME280;14429;48.346;16.338;2023-08-30T08:56:57;98865.47;;;25.00;49.27
26859;BME280;14429;48.346;16.338;2023-08-30T08:59:23;98878.53;;;24.92;49.44
26859;BME280;14429;48.346;16.338;2023-08-30T09:01:49;98870.56;;;24.78;49.85
26859;BME280;14429;48.346;16.338;2023-08-30T09:04:15;98873.09;;;24.66;47.06
26859;BME280;14429;48.346;16.338;2023-08-30T09:06:40;98876.00;;;24.78;48.77
26859;BME280;14429;48.346;16.338;2023-08-30T09:09:08;98871.81;;;24.88;49.51
26859;BME280;14429;48.346;16.338;2023-08-30T09:11:33;98871.16;;;24.99;49.13
26859;BME280;14429;48.346;16.338;2023-08-30T09:13:59;98871.22;;;24.61;49.99
26859;BME280;14429;48.346;16.338;2023-08-30T09:16:24;98872.00;;;24.93;49.53
26859;BME280;14429;48.346;16.338;2023-08-30T09:18:57;98878.16;;;24.69;49.56
26859;BME280;14429;48.346;16.338;2023-08-30T09:21:23;98871.38;;;24.91;49.29
26859;BME280;14429;48.346;16.338;2023-08-30T09:23:56;98882.09;;;24.99;49.45
26859;BME280;14429;48.346;16.338;2023-08-30T09:26:23;98885.22;;;24.96;49.30
26859;BME280;14429;48.346;16.338;2023-08-30T09:28:49;98889.38;;;25.05;49.14
26859;BME280;14429;48.346;16.338;2023-08-30T09:31:17;98890.72;;;24.83;49.07
26859;BME280;14429;48.346;16.338;2023-08-30T09:33:44;98899.47;;;25.11;48.82
26859;BME280;14429;48.346;16.338;2023-08-30T09:36:10;98891.50;;;25.03;49.01
26859;BME280;14429;48.346;16.338;2023-08-30T09:38:36;98899.47;;;25.04;49.13
26859;BME280;14429;48.346;16.338;2023-08-30T09:41:03;98890.31;;;24.73;48.69
26859;BME280;14429;48.346;16.338;2023-08-30T09:43:30;98891.94;;;25.00;49.09
26859;BME280;14429;48.346;16.338;2023-08-30T09:45:55;98894.06;;;24.85;49.28
26859;BME280;14429;48.346;16.338;2023-08-30T09:48:22;98903.69;;;24.94;49.27
26859;BME280;14429;48.346;16.338;2023-08-30T09:50:53;98895.75;;;24.92;48.97
26859;BME280;14429;48.346;16.338;2023-08-30T09:53:20;98898.63;;;25.04;49.10
26859;BME280;14429;48.346;16.338;2023-08-30T09:55:47;98906.84;;;25.04;49.34
26859;BME280;14429;48.346;16.338;2023-08-30T09:58:13;98906.41;;;25.00;49.32
26859;BME280;14429;48.346;16.338;2023-08-30T10:00:40;98900.97;;;25.00;49.29
26859;BME280;14429;48.346;16.338;2023-08-30T10:03:07;98902.44;;;25.03;49.16
26859;BME280;14429;48.346;16.338;2023-08-30T10:05:33;98914.84;;;24.99;49.17
26859;BME280;14429;48.346;16.338;2023-08-30T10:08:00;98906.59;;;25.05;49.00
26859;BME280;14429;48.346;16.338;2023-08-30T10:10:27;98905.75;;;25.05;49.12
26859;BME280;14429;48.346;16.338;2023-08-30T10:12:55;98904.94;;;25.04;48.96
26859;BME280;14429;48.346;16.338;2023-08-30T10:15:21;98911.53;;;24.52;46.11
26859;BME280;14429;48.346;16.338;2023-08-30T10:17:52;98910.00;;;24.75;49.63
26859;BME280;14429;48.346;16.338;2023-08-30T10:20:19;98904.53;;;25.01;49.29
26859;BME280;14429;48.346;16.338;2023-08-30T10:22:46;98904.81;;;24.80;49.56
26859;BME280;14429;48.346;16.338;2023-08-30T10:25:15;98907.50;;;24.93;49.24
26859;BME280;14429;48.346;16.338;2023-08-30T10:27:45;98902.94;;;24.62;48.35
26859;BME280;14429;48.346;16.338;2023-08-30T10:30:12;98906.28;;;24.32;46.47
26859;BME280;14429;48.346;16.338;2023-08-30T10:32:39;98901.63;;;24.70;47.07
26859;BME280;14429;48.346;16.338;2023-08-30T10:35:06;98902.44;;;24.90;47.27
26859;BME280;14429;48.346;16.338;2023-08-30T10:37:31;98901.63;;;24.70;48.62
26859;BME280;14429;48.346;16.338;2023-08-30T10:39:59;98897.88;;;24.84;46.97
26859;BME280;14429;48.346;16.338;2023-08-30T10:42:25;98894.50;;;24.63;47.42
26859;BME280;14429;48.346;16.338;2023-08-30T10:44:51;98891.97;;;24.87;47.70
26859;BME280;14429;48.346;16.338;2023-08-30T10:47:20;98894.13;;;24.47;45.72
26859;BME280;14429;48.346;16.338;2023-08-30T10:49:47;98896.16;;;24.83;49.28
26859;BME280;14429;48.346;16.338;2023-08-30T10:52:14;98902.03;;;24.93;49.02
26859;BME280;14429;48.346;16.338;2023-08-30T10:54:39;98899.06;;;25.01;49.06
26859;BME280;14429;48.346;16.338;2023-08-30T10:57:05;98898.69;;;24.85;48.27
26859;BME280;14429;48.346;16.338;2023-08-30T10:59:30;98890.72;;;24.83;49.21
26859;BME280;14429;48.346;16.338;2023-08-30T11:01:56;98890.28;;;24.92;49.26
26859;BME280;14429;48.346;16.338;2023-08-30T11:04:22;98893.28;;;24.34;45.44
26859;BME280;14429;48.346;16.338;2023-08-30T11:06:49;98889.88;;;24.63;47.86
26859;BME280;14429;48.346;16.338;2023-08-30T11:09:16;98886.25;;;24.95;49.05
26859;BME280;14429;48.346;16.338;2023-08-30T11:11:42;98884.81;;;24.99;48.93
26859;BME280;14429;48.346;16.338;2023-08-30T11:14:07;98891.97;;;24.74;47.47
26859;BME280;14429;48.346;16.338;2023-08-30T11:16:33;98879.38;;;24.92;49.25
26859;BME280;14429;48.346;16.338;2023-08-30T11:19:00;98875.56;;;25.00;49.16
26859;BME280;14429;48.346;16.338;2023-08-30T11:21:25;98882.34;;;24.65;49.39
26859;BME280;14429;48.346;16.338;2023-08-30T11:23:51;98881.91;;;24.75;46.95
26859;BME280;14429;48.346;16.338;2023-08-30T11:26:18;98885.00;;;25.04;48.97
26859;BME280;14429;48.346;16.338;2023-08-30T11:28:44;98881.44;;;25.03;48.96
26859;BME280;14429;48.346;16.338;2023-08-30T11:31:09;98889.38;;;25.05;48.90
26859;BME280;14429;48.346;16.338;2023-08-30T11:33:34;98887.72;;;25.10;49.03
26859;BME280;14429;48.346;16.338;2023-08-30T11:36:00;98877.63;;;25.11;48.62
26859;BME280;14429;48.346;16.338;2023-08-30T11:38:26;98879.97;;;24.94;47.00
26859;BME280;14429;48.346;16.338;2023-08-30T11:40:51;98876.56;;;25.12;48.63
26859;BME280;14429;48.346;16.338;2023-08-30T11:43:19;98864.81;;;25.11;48.54
26859;BME280;14429;48.346;16.338;2023-08-30T11:45:44;98880.97;;;25.13;48.67
26859;BME280;14429;48.346;16.338;2023-08-30T11:48:10;98875.06;;;25.16;48.80
26859;BME280;14429;48.346;16.338;2023-08-30T11:50:36;98873.00;;;25.05;48.48
26859;BME280;14429;48.346;16.338;2023-08-30T11:53:02;98874.66;;;25.18;48.54
26859;BME280;14429;48.346;16.338;2023-08-30T11:55:28;98878.63;;;25.22;48.52
26859;BME280;14429;48.346;16.338;2023-08-30T11:57:54;98871.28;;;25.16;48.51
26859;BME280;14429;48.346;16.338;2023-08-30T12:00:21;98882.19;;;25.16;48.48
26859;BME280;14429;48.346;16.338;2023-08-30T12:02:47;98877.56;;;25.17;48.30
26859;BME280;14429;48.346;16.338;2023-08-30T12:05:12;98869.34;;;25.23;48.46
26859;BME280;14429;48.346;16.338;2023-08-30T12:07:38;98869.44;;;25.04;46.95
26859;BME280;14429;48.346;16.338;2023-08-30T12:10:04;98869.53;;;25.28;48.22
26859;BME280;14429;48.346;16.338;2023-08-30T12:12:30;98868.69;;;25.28;48.13
26859;BME280;14429;48.346;16.338;2023-08-30T12:14:55;98873.16;;;25.22;48.14
26859;BME280;14429;48.346;16.338;2023-08-30T12:17:22;98865.56;;;25.24;48.31
26859;BME280;14429;48.346;16.338;2023-08-30T12:19:55;98863.63;;;24.88;45.73
26859;BME280;14429;48.346;16.338;2023-08-30T12:22:20;98868.03;;;24.89;45.15
26859;BME280;14429;48.346;16.338;2023-08-30T12:24:46;98868.03;;;24.76;48.29
26859;BME280;14429;48.346;16.338;2023-08-30T12:27:12;98872.19;;;24.98;48.92
26859;BME280;14429;48.346;16.338;2023-08-30T12:29:38;98859.75;;;25.15;48.66
26859;BME280;14429;48.346;16.338;2023-08-30T12:32:04;98858.41;;;24.74;45.13
26859;BME280;14429;48.346;16.338;2023-08-30T12:34:31;98860.84;;;25.01;48.98
26859;BME280;14429;48.346;16.338;2023-08-30T12:36:56;98861.84;;;25.13;48.75
26859;BME280;14429;48.346;16.338;2023-08-30T12:39:21;98867.22;;;24.82;47.35
26859;BME280;14429;48.346;16.338;2023-08-30T12:41:47;98873.50;;;24.89;48.96
26859;BME280;14429;48.346;16.338;2023-08-30T12:44:12;98880.63;;;24.90;48.88